sensor_id;sensor_type;location;lat;lon;timestamp;P1;durP1;ratioP1;P2;durP2;ratioP2
17253;SDS011;32542;52.832;13.816;2023-10-08T00:00:49;5.93;;;2.88;;
17253;SDS011;32542;52.832;13.816;2023-10-08T00:03:55;4.65;;;2.85;;
17253;SDS011;32542;52.832;13.816;2023-10-08T00:07:01;5.55;;;2.45;;
17253;SDS011;32542;52.832;13.816;2023-10-08T00:10:08;5.15;;;2.80;;
17253;SDS011;32542;52.832;13.816;2023-10-08T00:13:12;4.40;;;2.70;;
17253;SDS011;32542;52.832;13.816;2023-10-08T00:16:17;3.45;;;2.53;;
17253;SDS011;32542;52.832;13.816;2023-10-08T00:19:23;5.03;;;3.15;;
17253;SDS011;32542;52.832;13.816;2023-10-08T00:22:28;4.82;;;2.40;;
17253;SDS011;32542;52.832;13.816;2023-10-08T00:25:37;4.65;;;2.50;;
17253;SDS011;32542;52.832;13.816;2023-10-08T00:28:42;4.93;;;2.53;;
17253;SDS011;32542;52.832;13.816;2023-10-08T00:31:45;4.72;;;2.45;;
17253;SDS011;32542;52.832;13.816;2023-10-08T00:34:49;3.90;;;2.58;;
17253;SDS011;32542;52.832;13.816;2023-10-08T00:37:53;5.32;;;2.85;;
17253;SDS011;32542;52.832;13.816;2023-10-08T00:41:01;4.15;;;2.38;;
17253;SDS011;32542;52.832;13.816;2023-10-08T00:44:06;4.72;;;2.60;;
17253;SDS011;32542;52.832;13.816;2023-10-08T00:47:14;4.07;;;2.30;;
17253;SDS011;32542;52.832;13.816;2023-10-08T00:50:22;5.40;;;2.47;;
17253;SDS011;32542;52.832;13.816;2023-10-08T00:53:34;4.40;;;2.35;;
17253;SDS011;32542;52.832;13.816;2023-10-08T00:56:40;3.55;;;2.53;;
17253;SDS011;32542;52.832;13.816;2023-10-08T00:59:58;4.30;;;2.53;;
17253;SDS011;32542;52.832;13.816;2023-10-08T01:03:01;5.68;;;2.38;;
17253;SDS011;32542;52.832;13.816;2023-10-08T01:06:12;5.10;;;2.60;;
17253;SDS011;32542;52.832;13.816;2023-10-08T01:09:17;3.85;;;2.30;;
17253;SDS011;32542;52.832;13.816;2023-10-08T01:12:23;3.60;;;2.33;;
17253;SDS011;32542;52.832;13.816;2023-10-08T01:15:29;4.63;;;2.72;;
17253;SDS011;32542;52.832;13.816;2023-10-08T01:18:37;3.10;;;1.92;;
17253;SDS011;32542;52.832;13.816;2023-10-08T01:21:44;4.13;;;2.42;;
17253;SDS011;32542;52.832;13.816;2023-10-08T01:24:50;4.38;;;2.25;;
17253;SDS011;32542;52.832;13.816;2023-10-08T01:27:55;3.97;;;2.58;;
17253;SDS011;32542;52.832;13.816;2023-10-08T01:31:00;3.53;;;2.35;;
17253;SDS011;32542;52.832;13.816;2023-10-08T01:34:05;4.03;;;2.40;;
17253;SDS011;32542;52.832;13.816;2023-10-08T01:37:09;4.13;;;2.03;;
17253;SDS011;32542;52.832;13.816;2023-10-08T01:40:15;4.57;;;2.72;;
17253;SDS011;32542;52.832;13.816;2023-10-08T01:43:19;3.33;;;2.10;;
17253;SDS011;32542;52.832;13.816;2023-10-08T01:46:23;4.47;;;2.40;;
17253;SDS011;32542;52.832;13.816;2023-10-08T01:49:28;2.95;;;2.25;;
17253;SDS011;32542;52.832;13.816;2023-10-08T01:52:34;3.10;;;2.20;;
17253;SDS011;32542;52.832;13.816;2023-10-08T01:55:39;3.15;;;2.13;;
17253;SDS011;32542;52.832;13.816;2023-10-08T01:58:50;3.05;;;2.20;;
17253;SDS011;32542;52.832;13.816;2023-10-08T02:01:53;4.97;;;2.28;;
17253;SDS011;32542;52.832;13.816;2023-10-08T02:04:58;5.97;;;2.80;;
17253;SDS011;32542;52.832;13.816;2023-10-08T02:08:01;4.03;;;2.47;;
17253;SDS011;32542;52.832;13.816;2023-10-08T02:11:06;3.45;;;2.17;;
17253;SDS011;32542;52.832;13.816;2023-10-08T02:14:10;4.28;;;2.22;;
17253;SDS011;32542;52.832;13.816;2023-10-08T02:17:13;3.05;;;1.90;;
17253;SDS011;32542;52.832;13.816;2023-10-08T02:20:16;4.32;;;2.25;;
17253;SDS011;32542;52.832;13.816;2023-10-08T02:23:20;3.03;;;2.03;;
17253;SDS011;32542;52.832;13.816;2023-10-08T02:26:24;5.75;;;2.38;;
17253;SDS011;32542;52.832;13.816;2023-10-08T02:29:28;3.28;;;2.13;;
17253;SDS011;32542;52.832;13.816;2023-10-08T02:32:32;3.90;;;2.13;;
17253;SDS011;32542;52.832;13.816;2023-10-08T02:35:35;3.22;;;2.25;;
17253;SDS011;32542;52.832;13.816;2023-10-08T02:38:38;3.67;;;1.90;;
17253;SDS011;32542;52.832;13.816;2023-10-08T02:41:42;4.25;;;2.20;;
17253;SDS011;32542;52.832;13.816;2023-10-08T02:44:47;3.67;;;2.05;;
17253;SDS011;32542;52.832;13.816;2023-10-08T02:47:52;3.35;;;2.08;;
17253;SDS011;32542;52.832;13.816;2023-10-08T02:50:56;3.35;;;2.03;;
17253;SDS011;32542;52.832;13.816;2023-10-08T02:54:08;4.63;;;2.30;;
17253;SDS011;32542;52.832;13.816;2023-10-08T02:57:19;3.38;;;1.98;;
17253;SDS011;32542;52.832;13.816;2023-10-08T03:00:24;4.47;;;2.33;;
17253;SDS011;32542;52.832;13.816;2023-10-08T03:03:31;2.90;;;2.03;;
17253;SDS011;32542;52.832;13.816;2023-10-08T03:06:34;3.00;;;1.90;;
17253;SDS011;32542;52.832;13.816;2023-10-08T03:09:40;3.60;;;1.90;;
17253;SDS011;32542;52.832;13.816;2023-10-08T03:12:45;4.18;;;2.00;;
17253;SDS011;32542;52.832;13.816;2023-10-08T03:15:49;3.63;;;2.22;;
17253;SDS011;32542;52.832;13.816;2023-10-08T03:19:09;3.10;;;1.95;;
17253;SDS011;32542;52.832;13.816;2023-10-08T03:22:12;2.85;;;1.80;;
17253;SDS011;32542;52.832;13.816;2023-10-08T03:25:20;3.53;;;2.13;;
17253;SDS011;32542;52.832;13.816;2023-10-08T03:28:27;2.95;;;2.00;;
17253;SDS011;32542;52.832;13.816;2023-10-08T03:31:30;3.28;;;2.08;;
17253;SDS011;32542;52.832;13.816;2023-10-08T03:34:53;3.85;;;1.90;;
17253;SDS011;32542;52.832;13.816;2023-10-08T03:37:56;3.15;;;1.70;;
17253;SDS011;32542;52.832;13.816;2023-10-08T03:41:21;3.15;;;2.00;;
17253;SDS011;32542;52.832;13.816;2023-10-08T03:44:31;2.80;;;1.70;;
17253;SDS011;32542;52.832;13.816;2023-10-08T03:47:34;2.78;;;2.00;;
17253;SDS011;32542;52.832;13.816;2023-10-08T03:50:39;3.10;;;1.98;;
17253;SDS011;32542;52.832;13.816;2023-10-08T03:53:45;3.03;;;1.98;;
17253;SDS011;32542;52.832;13.816;2023-10-08T03:57:00;2.67;;;1.60;;
17253;SDS011;32542;52.832;13.816;2023-10-08T04:00:08;2.63;;;1.70;;
17253;SDS011;32542;52.832;13.816;2023-10-08T04:03:15;2.65;;;1.85;;
17253;SDS011;32542;52.832;13.816;2023-10-08T04:06:26;3.70;;;1.77;;
17253;SDS011;32542;52.832;13.816;2023-10-08T04:09:40;4.35;;;2.13;;
17253;SDS011;32542;52.832;13.816;2023-10-08T04:12:43;2.60;;;1.60;;
17253;SDS011;32542;52.832;13.816;2023-10-08T04:15:51;4.10;;;1.80;;
17253;SDS011;32542;52.832;13.816;2023-10-08T04:18:54;2.28;;;1.80;;
17253;SDS011;32542;52.832;13.816;2023-10-08T04:21:57;2.60;;;1.80;;
17253;SDS011;32542;52.832;13.816;2023-10-08T04:25:01;3.10;;;1.80;;
17253;SDS011;32542;52.832;13.816;2023-10-08T04:28:07;2.13;;;1.60;;
17253;SDS011;32542;52.832;13.816;2023-10-08T04:31:16;2.47;;;1.55;;
17253;SDS011;32542;52.832;13.816;2023-10-08T04:34:26;3.90;;;1.90;;
17253;SDS011;32542;52.832;13.816;2023-10-08T04:37:29;2.97;;;2.03;;
17253;SDS011;32542;52.832;13.816;2023-10-08T04:40:34;2.65;;;1.40;;
17253;SDS011;32542;52.832;13.816;2023-10-08T04:43:49;3.10;;;1.92;;
17253;SDS011;32542;52.832;13.816;2023-10-08T04:46:53;3.08;;;1.88;;
17253;SDS011;32542;52.832;13.816;2023-10-08T04:49:56;2.22;;;1.75;;
17253;SDS011;32542;52.832;13.816;2023-10-08T04:52:59;3.15;;;1.75;;
17253;SDS011;32542;52.832;13.816;2023-10-08T04:56:04;2.97;;;1.70;;
17253;SDS011;32542;52.832;13.816;2023-10-08T04:59:08;2.95;;;1.80;;
17253;SDS011;32542;52.832;13.816;2023-10-08T05:02:14;3.85;;;1.77;;
17253;SDS011;32542;52.832;13.816;2023-10-08T05:05:35;2.63;;;1.80;;
17253;SDS011;32542;52.832;13.816;2023-10-08T05:08:56;2.75;;;1.83;;
17253;SDS011;32542;52.832;13.816;2023-10-08T05:12:00;2.25;;;1.40;;
17253;SDS011;32542;52.832;13.816;2023-10-08T05:15:30;2.33;;;1.70;;
17253;SDS011;32542;52.832;13.816;2023-10-08T05:18:40;2.72;;;1.70;;
17253;SDS011;32542;52.832;13.816;2023-10-08T05:22:25;3.28;;;1.60;;
17253;SDS011;32542;52.832;13.816;2023-10-08T05:25:46;2.15;;;1.65;;
17253;SDS011;32542;52.832;13.816;2023-10-08T05:28:59;2.30;;;1.42;;
17253;SDS011;32542;52.832;13.816;2023-10-08T05:32:25;2.53;;;1.58;;
17253;SDS011;32542;52.832;13.816;2023-10-08T05:35:41;2.50;;;1.70;;
17253;SDS011;32542;52.832;13.816;2023-10-08T05:38:51;2.63;;;1.40;;
17253;SDS011;32542;52.832;13.816;2023-10-08T05:42:02;1.83;;;1.42;;
17253;SDS011;32542;52.832;13.816;2023-10-08T05:45:14;2.35;;;1.70;;
17253;SDS011;32542;52.832;13.816;2023-10-08T05:48:33;1.95;;;1.42;;
17253;SDS011;32542;52.832;13.816;2023-10-08T05:51:47;2.20;;;1.60;;
17253;SDS011;32542;52.832;13.816;2023-10-08T05:55:13;2.17;;;1.50;;
17253;SDS011;32542;52.832;13.816;2023-10-08T05:58:26;3.10;;;1.50;;
17253;SDS011;32542;52.832;13.816;2023-10-08T06:01:46;2.95;;;1.50;;
17253;SDS011;32542;52.832;13.816;2023-10-08T06:04:48;2.35;;;1.30;;
17253;SDS011;32542;52.832;13.816;2023-10-08T06:08:12;2.85;;;1.63;;
17253;SDS011;32542;52.832;13.816;2023-10-08T06:11:16;2.90;;;1.73;;
17253;SDS011;32542;52.832;13.816;2023-10-08T06:14:37;3.03;;;1.45;;
17253;SDS011;32542;52.832;13.816;2023-10-08T06:18:08;1.98;;;1.40;;
17253;SDS011;32542;52.832;13.816;2023-10-08T06:21:11;2.00;;;1.45;;
17253;SDS011;32542;52.832;13.816;2023-10-08T06:24:18;7.38;;;1.52;;
17253;SDS011;32542;52.832;13.816;2023-10-08T06:27:22;2.53;;;1.40;;
17253;SDS011;32542;52.832;13.816;2023-10-08T06:30:26;2.20;;;1.40;;
17253;SDS011;32542;52.832;13.816;2023-10-08T06:33:31;3.17;;;1.70;;
17253;SDS011;32542;52.832;13.816;2023-10-08T06:36:35;2.78;;;1.90;;
17253;SDS011;32542;52.832;13.816;2023-10-08T06:39:39;4.20;;;1.40;;
17253;SDS011;32542;52.832;13.816;2023-10-08T06:42:49;2.03;;;1.58;;
17253;SDS011;32542;52.832;13.816;2023-10-08T06:45:53;1.98;;;1.35;;
17253;SDS011;32542;52.832;13.816;2023-10-08T06:48:59;3.60;;;1.40;;
17253;SDS011;32542;52.832;13.816;2023-10-08T06:52:05;2.97;;;1.60;;
17253;SDS011;32542;52.832;13.816;2023-10-08T06:55:13;2.92;;;1.50;;
17253;SDS011;32542;52.832;13.816;2023-10-08T06:58:19;2.38;;;1.40;;
17253;SDS011;32542;52.832;13.816;2023-10-08T07:01:22;2.67;;;1.50;;
17253;SDS011;32542;52.832;13.816;2023-10-08T07:04:26;1.80;;;1.40;;
17253;SDS011;32542;52.832;13.816;2023-10-08T07:07:31;3.20;;;1.70;;
17253;SDS011;32542;52.832;13.816;2023-10-08T07:10:39;11.50;;;3.08;;
17253;SDS011;32542;52.832;13.816;2023-10-08T07:13:43;13.55;;;3.20;;
17253;SDS011;32542;52.832;13.816;2023-10-08T07:16:46;2.65;;;1.67;;
17253;SDS011;32542;52.832;13.816;2023-10-08T07:19:52;3.72;;;1.45;;
17253;SDS011;32542;52.832;13.816;2023-10-08T07:22:55;5.28;;;1.40;;
17253;SDS011;32542;52.832;13.816;2023-10-08T07:25:59;3.60;;;1.73;;
17253;SDS011;32542;52.832;13.816;2023-10-08T07:29:13;2.97;;;1.55;;
17253;SDS011;32542;52.832;13.816;2023-10-08T07:32:18;6.88;;;1.70;;
17253;SDS011;32542;52.832;13.816;2023-10-08T07:35:23;5.93;;;1.58;;
17253;SDS011;32542;52.832;13.816;2023-10-08T07:38:26;6.05;;;1.60;;
17253;SDS011;32542;52.832;13.816;2023-10-08T07:41:31;5.80;;;1.45;;
17253;SDS011;32542;52.832;13.816;2023-10-08T07:44:35;6.05;;;1.77;;
17253;SDS011;32542;52.832;13.816;2023-10-08T07:47:40;6.10;;;1.50;;
17253;SDS011;32542;52.832;13.816;2023-10-08T07:50:44;5.25;;;1.70;;
17253;SDS011;32542;52.832;13.816;2023-10-08T07:53:48;8.38;;;1.45;;
17253;SDS011;32542;52.832;13.816;2023-10-08T07:56:52;6.05;;;1.80;;
17253;SDS011;32542;52.832;13.816;2023-10-08T07:59:59;5.28;;;1.50;;
17253;SDS011;32542;52.832;13.816;2023-10-08T08:03:20;5.72;;;1.60;;
17253;SDS011;32542;52.832;13.816;2023-10-08T08:06:23;5.07;;;1.50;;
17253;SDS011;32542;52.832;13.816;2023-10-08T08:09:27;7.13;;;1.52;;
17253;SDS011;32542;52.832;13.816;2023-10-08T08:12:31;7.13;;;1.58;;
17253;SDS011;32542;52.832;13.816;2023-10-08T08:15:34;8.35;;;1.60;;
17253;SDS011;32542;52.832;13.816;2023-10-08T08:18:42;4.72;;;1.63;;
17253;SDS011;32542;52.832;13.816;2023-10-08T08:21:45;5.72;;;1.52;;
17253;SDS011;32542;52.832;13.816;2023-10-08T08:24:48;8.13;;;1.75;;
17253;SDS011;32542;52.832;13.816;2023-10-08T08:27:59;7.80;;;1.95;;
17253;SDS011;32542;52.832;13.816;2023-10-08T08:31:02;7.50;;;1.90;;
17253;SDS011;32542;52.832;13.816;2023-10-08T08:34:10;10.52;;;1.30;;
17253;SDS011;32542;52.832;13.816;2023-10-08T08:37:19;5.82;;;1.40;;
17253;SDS011;32542;52.832;13.816;2023-10-08T08:40:23;9.75;;;1.80;;
17253;SDS011;32542;52.832;13.816;2023-10-08T08:43:28;5.25;;;1.48;;
17253;SDS011;32542;52.832;13.816;2023-10-08T08:46:35;8.90;;;1.42;;
17253;SDS011;32542;52.832;13.816;2023-10-08T08:49:41;4.82;;;1.80;;
17253;SDS011;32542;52.832;13.816;2023-10-08T08:52:46;6.82;;;1.70;;
17253;SDS011;32542;52.832;13.816;2023-10-08T08:55:49;7.97;;;2.28;;
17253;SDS011;32542;52.832;13.816;2023-10-08T08:58:55;4.22;;;1.50;;
17253;SDS011;32542;52.832;13.816;2023-10-08T09:02:00;8.43;;;1.55;;
17253;SDS011;32542;52.832;13.816;2023-10-08T09:05:03;5.70;;;1.63;;
17253;SDS011;32542;52.832;13.816;2023-10-08T09:08:14;6.95;;;1.60;;
17253;SDS011;32542;52.832;13.816;2023-10-08T09:11:19;4.53;;;1.50;;
17253;SDS011;32542;52.832;13.816;2023-10-08T09:14:24;6.43;;;1.20;;
17253;SDS011;32542;52.832;13.816;2023-10-08T09:17:28;4.03;;;1.50;;
17253;SDS011;32542;52.832;13.816;2023-10-08T09:20:31;3.63;;;1.50;;
17253;SDS011;32542;52.832;13.816;2023-10-08T09:23:46;7.00;;;1.80;;
17253;SDS011;32542;52.832;13.816;2023-10-08T09:26:52;4.22;;;1.30;;
17253;SDS011;32542;52.832;13.816;2023-10-08T09:29:56;2.42;;;1.13;;
17253;SDS011;32542;52.832;13.816;2023-10-08T09:33:01;5.10;;;1.52;;
17253;SDS011;32542;52.832;13.816;2023-10-08T09:36:04;3.30;;;1.63;;
17253;SDS011;32542;52.832;13.816;2023-10-08T09:39:08;3.88;;;1.38;;
17253;SDS011;32542;52.832;13.816;2023-10-08T09:42:21;2.53;;;1.10;;
17253;SDS011;32542;52.832;13.816;2023-10-08T09:45:27;4.65;;;1.30;;
17253;SDS011;32542;52.832;13.816;2023-10-08T09:48:31;4.28;;;1.15;;
17253;SDS011;32542;52.832;13.816;2023-10-08T09:51:39;4.20;;;1.20;;
17253;SDS011;32542;52.832;13.816;2023-10-08T09:54:43;6.53;;;1.58;;
17253;SDS011;32542;52.832;13.816;2023-10-08T09:57:50;1.88;;;1.17;;
17253;SDS011;32542;52.832;13.816;2023-10-08T10:00:54;2.03;;;1.10;;
17253;SDS011;32542;52.832;13.816;2023-10-08T10:03:59;6.32;;;1.50;;
17253;SDS011;32542;52.832;13.816;2023-10-08T10:07:09;1.92;;;1.00;;
17253;SDS011;32542;52.832;13.816;2023-10-08T10:13:40;3.90;;;1.30;;
17253;SDS011;32542;52.832;13.816;2023-10-08T10:16:49;3.53;;;1.25;;
17253;SDS011;32542;52.832;13.816;2023-10-08T10:20:17;4.50;;;1.27;;
17253;SDS011;32542;52.832;13.816;2023-10-08T10:23:35;2.30;;;1.20;;
17253;SDS011;32542;52.832;13.816;2023-10-08T10:26:39;3.88;;;1.48;;
17253;SDS011;32542;52.832;13.816;2023-10-08T10:29:46;1.55;;;1.10;;
17253;SDS011;32542;52.832;13.816;2023-10-08T10:32:52;3.47;;;1.00;;
17253;SDS011;32542;52.832;13.816;2023-10-08T10:35:56;3.58;;;1.38;;
17253;SDS011;32542;52.832;13.816;2023-10-08T10:39:00;4.03;;;1.20;;
17253;SDS011;32542;52.832;13.816;2023-10-08T10:42:17;1.27;;;1.00;;
17253;SDS011;32542;52.832;13.816;2023-10-08T10:45:22;2.47;;;1.00;;
17253;SDS011;32542;52.832;13.816;2023-10-08T10:48:44;3.45;;;1.13;;
17253;SDS011;32542;52.832;13.816;2023-10-08T10:51:58;1.30;;;1.02;;
17253;SDS011;32542;52.832;13.816;2023-10-08T10:55:01;4.38;;;1.55;;
17253;SDS011;32542;52.832;13.816;2023-10-08T10:58:20;1.58;;;0.90;;
17253;SDS011;32542;52.832;13.816;2023-10-08T11:01:26;2.28;;;1.00;;
17253;SDS011;32542;52.832;13.816;2023-10-08T11:04:32;2.90;;;1.35;;
17253;SDS011;32542;52.832;13.816;2023-10-08T11:07:48;3.22;;;0.88;;
17253;SDS011;32542;52.832;13.816;2023-10-08T11:10:52;1.40;;;1.02;;
17253;SDS011;32542;52.832;13.816;2023-10-08T11:14:00;2.50;;;0.82;;
17253;SDS011;32542;52.832;13.816;2023-10-08T11:17:08;1.88;;;1.00;;
17253;SDS011;32542;52.832;13.816;2023-10-08T11:20:26;2.05;;;1.00;;
17253;SDS011;32542;52.832;13.816;2023-10-08T11:23:31;1.83;;;1.13;;
17253;SDS011;32542;52.832;13.816;2023-10-08T11:26:36;2.38;;;1.23;;
17253;SDS011;32542;52.832;13.816;2023-10-08T11:29:41;2.45;;;0.90;;
17253;SDS011;32542;52.832;13.816;2023-10-08T11:32:46;3.25;;;1.00;;
17253;SDS011;32542;52.832;13.816;2023-10-08T11:35:57;1.45;;;1.02;;
17253;SDS011;32542;52.832;13.816;2023-10-08T11:39:09;1.40;;;0.90;;
17253;SDS011;32542;52.832;13.816;2023-10-08T11:42:23;1.98;;;1.00;;
17253;SDS011;32542;52.832;13.816;2023-10-08T11:45:41;0.90;;;0.60;;
17253;SDS011;32542;52.832;13.816;2023-10-08T11:48:49;1.83;;;1.00;;
17253;SDS011;32542;52.832;13.816;2023-10-08T11:51:53;2.67;;;0.90;;
17253;SDS011;32542;52.832;13.816;2023-10-08T11:54:57;1.73;;;0.88;;
17253;SDS011;32542;52.832;13.816;2023-10-08T11:57:59;1.45;;;1.00;;
17253;SDS011;32542;52.832;13.816;2023-10-08T12:01:11;2.85;;;1.00;;
17253;SDS011;32542;52.832;13.816;2023-10-08T12:04:17;1.48;;;1.00;;
17253;SDS011;32542;52.832;13.816;2023-10-08T12:07:22;1.95;;;0.90;;
17253;SDS011;32542;52.832;13.816;2023-10-08T12:10:29;0.98;;;0.80;;
17253;SDS011;32542;52.832;13.816;2023-10-08T12:13:35;3.25;;;0.95;;
17253;SDS011;32542;52.832;13.816;2023-10-08T12:16:38;2.53;;;1.00;;
17253;SDS011;32542;52.832;13.816;2023-10-08T12:19:43;1.48;;;0.90;;
17253;SDS011;32542;52.832;13.816;2023-10-08T12:22:48;3.85;;;0.93;;
17253;SDS011;32542;52.832;13.816;2023-10-08T12:25:51;1.27;;;0.90;;
17253;SDS011;32542;52.832;13.816;2023-10-08T12:28:57;1.05;;;0.70;;
17253;SDS011;32542;52.832;13.816;2023-10-08T12:32:01;1.52;;;1.00;;
17253;SDS011;32542;52.832;13.816;2023-10-08T12:35:10;2.63;;;0.80;;
17253;SDS011;32542;52.832;13.816;2023-10-08T12:38:16;1.30;;;1.00;;
17253;SDS011;32542;52.832;13.816;2023-10-08T12:41:22;3.13;;;0.90;;
17253;SDS011;32542;52.832;13.816;2023-10-08T12:44:26;1.92;;;0.93;;
17253;SDS011;32542;52.832;13.816;2023-10-08T12:47:29;2.42;;;0.95;;
17253;SDS011;32542;52.832;13.816;2023-10-08T12:50:32;1.10;;;0.73;;
17253;SDS011;32542;52.832;13.816;2023-10-08T12:53:45;1.60;;;0.88;;
17253;SDS011;32542;52.832;13.816;2023-10-08T12:57:00;1.90;;;0.90;;
17253;SDS011;32542;52.832;13.816;2023-10-08T13:00:03;1.20;;;1.00;;
17253;SDS011;32542;52.832;13.816;2023-10-08T13:03:06;1.73;;;0.80;;
17253;SDS011;32542;52.832;13.816;2023-10-08T13:06:17;1.75;;;0.73;;
17253;SDS011;32542;52.832;13.816;2023-10-08T13:09:25;1.55;;;0.90;;
17253;SDS011;32542;52.832;13.816;2023-10-08T13:12:29;1.13;;;0.80;;
17253;SDS011;32542;52.832;13.816;2023-10-08T13:15:32;1.38;;;0.82;;
17253;SDS011;32542;52.832;13.816;2023-10-08T13:18:36;1.15;;;0.95;;
17253;SDS011;32542;52.832;13.816;2023-10-08T13:21:39;1.67;;;0.90;;
17253;SDS011;32542;52.832;13.816;2023-10-08T13:24:43;1.40;;;0.70;;
17253;SDS011;32542;52.832;13.816;2023-10-08T13:27:47;1.10;;;0.80;;
17253;SDS011;32542;52.832;13.816;2023-10-08T13:30:50;2.22;;;0.80;;
17253;SDS011;32542;52.832;13.816;2023-10-08T13:33:55;1.08;;;0.77;;
17253;SDS011;32542;52.832;13.816;2023-10-08T13:36:59;1.38;;;0.77;;
17253;SDS011;32542;52.832;13.816;2023-10-08T13:40:03;1.13;;;0.75;;
17253;SDS011;32542;52.832;13.816;2023-10-08T13:43:07;0.73;;;0.70;;
17253;SDS011;32542;52.832;13.816;2023-10-08T13:46:13;2.90;;;0.70;;
17253;SDS011;32542;52.832;13.816;2023-10-08T13:49:18;1.20;;;0.80;;
17253;SDS011;32542;52.832;13.816;2023-10-08T13:52:21;1.13;;;0.70;;
17253;SDS011;32542;52.832;13.816;2023-10-08T13:55:28;1.00;;;0.80;;
17253;SDS011;32542;52.832;13.816;2023-10-08T13:58:31;1.23;;;0.93;;
17253;SDS011;32542;52.832;13.816;2023-10-08T14:01:36;0.60;;;0.60;;
17253;SDS011;32542;52.832;13.816;2023-10-08T14:04:42;1.77;;;0.93;;
17253;SDS011;32542;52.832;13.816;2023-10-08T14:07:46;0.70;;;0.70;;
17253;SDS011;32542;52.832;13.816;2023-10-08T14:10:51;0.77;;;0.73;;
17253;SDS011;32542;52.832;13.816;2023-10-08T14:13:58;0.90;;;0.73;;
17253;SDS011;32542;52.832;13.816;2023-10-08T14:17:03;0.80;;;0.80;;
17253;SDS011;32542;52.832;13.816;2023-10-08T14:20:08;0.80;;;0.77;;
17253;SDS011;32542;52.832;13.816;2023-10-08T14:23:15;1.15;;;0.80;;
17253;SDS011;32542;52.832;13.816;2023-10-08T14:26:19;0.73;;;0.70;;
17253;SDS011;32542;52.832;13.816;2023-10-08T14:29:23;2.17;;;0.88;;
17253;SDS011;32542;52.832;13.816;2023-10-08T14:32:28;0.68;;;0.65;;
17253;SDS011;32542;52.832;13.816;2023-10-08T14:35:33;1.40;;;0.90;;
17253;SDS011;32542;52.832;13.816;2023-10-08T14:38:54;1.90;;;0.77;;
17253;SDS011;32542;52.832;13.816;2023-10-08T14:42:16;0.73;;;0.70;;
17253;SDS011;32542;52.832;13.816;2023-10-08T14:45:36;0.80;;;0.70;;
17253;SDS011;32542;52.832;13.816;2023-10-08T14:48:42;1.63;;;1.02;;
17253;SDS011;32542;52.832;13.816;2023-10-08T14:51:45;0.70;;;0.65;;
17253;SDS011;32542;52.832;13.816;2023-10-08T14:54:50;1.35;;;0.80;;
17253;SDS011;32542;52.832;13.816;2023-10-08T14:57:55;0.90;;;0.70;;
17253;SDS011;32542;52.832;13.816;2023-10-08T15:00:58;0.65;;;0.60;;
17253;SDS011;32542;52.832;13.816;2023-10-08T15:04:01;1.73;;;1.00;;
17253;SDS011;32542;52.832;13.816;2023-10-08T15:07:06;1.23;;;0.77;;
17253;SDS011;32542;52.832;13.816;2023-10-08T15:10:10;0.93;;;0.80;;
17253;SDS011;32542;52.832;13.816;2023-10-08T15:13:15;1.40;;;1.00;;
17253;SDS011;32542;52.832;13.816;2023-10-08T15:16:18;0.82;;;0.70;;
17253;SDS011;32542;52.832;13.816;2023-10-08T15:19:24;1.98;;;0.60;;
17253;SDS011;32542;52.832;13.816;2023-10-08T15:22:30;0.80;;;0.80;;
17253;SDS011;32542;52.832;13.816;2023-10-08T15:25:33;0.93;;;0.70;;
17253;SDS011;32542;52.832;13.816;2023-10-08T15:28:38;0.93;;;0.70;;
17253;SDS011;32542;52.832;13.816;2023-10-08T15:31:41;1.35;;;0.90;;
17253;SDS011;32542;52.832;13.816;2023-10-08T15:34:44;1.10;;;0.70;;
17253;SDS011;32542;52.832;13.816;2023-10-08T15:37:50;1.10;;;0.80;;
17253;SDS011;32542;52.832;13.816;2023-10-08T15:40:53;1.20;;;0.73;;
17253;SDS011;32542;52.832;13.816;2023-10-08T15:43:57;1.15;;;0.80;;
17253;SDS011;32542;52.832;13.816;2023-10-08T15:47:00;1.50;;;0.70;;
17253;SDS011;32542;52.832;13.816;2023-10-08T15:50:04;1.15;;;0.70;;
17253;SDS011;32542;52.832;13.816;2023-10-08T15:53:11;1.02;;;0.65;;
17253;SDS011;32542;52.832;13.816;2023-10-08T15:56:14;0.75;;;0.60;;
17253;SDS011;32542;52.832;13.816;2023-10-08T15:59:18;0.82;;;0.70;;
17253;SDS011;32542;52.832;13.816;2023-10-08T16:02:21;0.73;;;0.60;;
17253;SDS011;32542;52.832;13.816;2023-10-08T16:05:24;1.30;;;0.70;;
17253;SDS011;32542;52.832;13.816;2023-10-08T16:08:27;1.30;;;0.80;;
17253;SDS011;32542;52.832;13.816;2023-10-08T16:11:30;0.80;;;0.60;;
17253;SDS011;32542;52.832;13.816;2023-10-08T16:14:34;0.98;;;0.70;;
17253;SDS011;32542;52.832;13.816;2023-10-08T16:17:39;0.70;;;0.70;;
17253;SDS011;32542;52.832;13.816;2023-10-08T16:20:45;0.95;;;0.73;;
17253;SDS011;32542;52.832;13.816;2023-10-08T16:23:48;0.70;;;0.70;;
17253;SDS011;32542;52.832;13.816;2023-10-08T16:26:51;0.90;;;0.70;;
17253;SDS011;32542;52.832;13.816;2023-10-08T16:29:56;1.83;;;0.82;;
17253;SDS011;32542;52.832;13.816;2023-10-08T16:32:59;1.13;;;0.80;;
17253;SDS011;32542;52.832;13.816;2023-10-08T16:36:07;1.70;;;0.98;;
17253;SDS011;32542;52.832;13.816;2023-10-08T16:39:11;2.75;;;1.00;;
17253;SDS011;32542;52.832;13.816;2023-10-08T16:42:19;2.10;;;0.98;;
17253;SDS011;32542;52.832;13.816;2023-10-08T16:45:23;2.00;;;1.00;;
17253;SDS011;32542;52.832;13.816;2023-10-08T16:48:26;4.45;;;1.00;;
17253;SDS011;32542;52.832;13.816;2023-10-08T16:51:29;1.55;;;0.85;;
17253;SDS011;32542;52.832;13.816;2023-10-08T16:54:34;1.92;;;1.00;;
17253;SDS011;32542;52.832;13.816;2023-10-08T16:57:37;5.75;;;0.90;;
17253;SDS011;32542;52.832;13.816;2023-10-08T17:00:41;2.38;;;1.00;;
17253;SDS011;32542;52.832;13.816;2023-10-08T17:03:45;2.25;;;1.20;;
17253;SDS011;32542;52.832;13.816;2023-10-08T17:06:48;1.73;;;1.10;;
17253;SDS011;32542;52.832;13.816;2023-10-08T17:09:53;3.05;;;1.13;;
17253;SDS011;32542;52.832;13.816;2023-10-08T17:12:56;1.73;;;1.10;;
17253;SDS011;32542;52.832;13.816;2023-10-08T17:16:00;2.22;;;1.60;;
17253;SDS011;32542;52.832;13.816;2023-10-08T17:19:06;2.72;;;1.77;;
17253;SDS011;32542;52.832;13.816;2023-10-08T17:22:09;4.50;;;2.10;;
17253;SDS011;32542;52.832;13.816;2023-10-08T17:25:12;4.82;;;2.03;;
17253;SDS011;32542;52.832;13.816;2023-10-08T17:28:15;4.68;;;2.10;;
17253;SDS011;32542;52.832;13.816;2023-10-08T17:31:21;3.83;;;2.40;;
17253;SDS011;32542;52.832;13.816;2023-10-08T17:34:25;4.57;;;2.25;;
17253;SDS011;32542;52.832;13.816;2023-10-08T17:37:28;2.92;;;2.33;;
17253;SDS011;32542;52.832;13.816;2023-10-08T17:40:31;4.82;;;2.67;;
17253;SDS011;32542;52.832;13.816;2023-10-08T17:43:34;3.58;;;2.30;;
17253;SDS011;32542;52.832;13.816;2023-10-08T17:46:38;5.30;;;2.10;;
17253;SDS011;32542;52.832;13.816;2023-10-08T17:49:41;5.93;;;2.30;;
17253;SDS011;32542;52.832;13.816;2023-10-08T17:52:44;7.00;;;2.33;;
17253;SDS011;32542;52.832;13.816;2023-10-08T17:55:50;3.65;;;2.13;;
17253;SDS011;32542;52.832;13.816;2023-10-08T17:58:52;4.43;;;2.20;;
17253;SDS011;32542;52.832;13.816;2023-10-08T18:01:57;3.78;;;2.17;;
17253;SDS011;32542;52.832;13.816;2023-10-08T18:04:59;4.68;;;2.10;;
17253;SDS011;32542;52.832;13.816;2023-10-08T18:08:05;5.78;;;2.30;;
17253;SDS011;32542;52.832;13.816;2023-10-08T18:11:12;4.85;;;2.20;;
17253;SDS011;32542;52.832;13.816;2023-10-08T18:14:15;3.70;;;2.15;;
17253;SDS011;32542;52.832;13.816;2023-10-08T18:17:21;3.35;;;2.20;;
17253;SDS011;32542;52.832;13.816;2023-10-08T18:20:24;3.00;;;2.40;;
17253;SDS011;32542;52.832;13.816;2023-10-08T18:23:35;3.25;;;2.30;;
17253;SDS011;32542;52.832;13.816;2023-10-08T18:26:40;2.70;;;2.10;;
17253;SDS011;32542;52.832;13.816;2023-10-08T18:29:44;4.22;;;2.28;;